sensor_id;sensor_type;location;lat;lon;timestamp;P1;durP1;ratioP1;P2;durP2;ratioP2
16845;SDS011;8539;53.188;8.696;2022-11-15T00:01:21;28.02;;;18.60;;
16845;SDS011;8539;53.188;8.696;2022-11-15T00:03:50;30.40;;;18.45;;
16845;SDS011;8539;53.188;8.696;2022-11-15T00:06:17;26.20;;;18.45;;
16845;SDS011;8539;53.188;8.696;2022-11-15T00:08:43;28.13;;;18.55;;
16845;SDS011;8539;53.188;8.696;2022-11-15T00:14:15;30.63;;;18.67;;
16845;SDS011;8539;53.188;8.696;2022-11-15T00:19:23;31.60;;;19.38;;
16845;SDS011;8539;53.188;8.696;2022-11-15T00:21:49;30.75;;;18.95;;
16845;SDS011;8539;53.188;8.696;2022-11-15T00:24:15;33.75;;;21.40;;
16845;SDS011;8539;53.188;8.696;2022-11-15T00:26:41;37.67;;;20.05;;
16845;SDS011;8539;53.188;8.696;2022-11-15T00:32:26;26.65;;;19.70;;
16845;SDS011;8539;53.188;8.696;2022-11-15T00:37:46;28.27;;;18.17;;
16845;SDS011;8539;53.188;8.696;2022-11-15T00:40:13;31.60;;;16.42;;
16845;SDS011;8539;53.188;8.696;2022-11-15T00:42:40;29.60;;;17.30;;
16845;SDS011;8539;53.188;8.696;2022-11-15T00:45:07;34.97;;;18.15;;
16845;SDS011;8539;53.188;8.696;2022-11-15T00:47:33;29.95;;;17.70;;
16845;SDS011;8539;53.188;8.696;2022-11-15T00:53:13;27.27;;;15.88;;
16845;SDS011;8539;53.188;8.696;2022-11-15T00:55:51;25.50;;;17.13;;
16845;SDS011;8539;53.188;8.696;2022-11-15T00:58:32;26.10;;;16.83;;
16845;SDS011;8539;53.188;8.696;2022-11-15T01:01:12;23.10;;;16.67;;
16845;SDS011;8539;53.188;8.696;2022-11-15T01:03:40;26.33;;;15.73;;
16845;SDS011;8539;53.188;8.696;2022-11-15T01:06:07;22.90;;;16.25;;
16845;SDS011;8539;53.188;8.696;2022-11-15T01:08:34;27.20;;;16.50;;
16845;SDS011;8539;53.188;8.696;2022-11-15T01:11:04;22.90;;;16.40;;
16845;SDS011;8539;53.188;8.696;2022-11-15T01:16:45;26.13;;;14.80;;
16845;SDS011;8539;53.188;8.696;2022-11-15T01:19:11;24.00;;;16.35;;
16845;SDS011;8539;53.188;8.696;2022-11-15T01:24:38;26.15;;;15.73;;
16845;SDS011;8539;53.188;8.696;2022-11-15T01:29:51;29.58;;;17.50;;
16845;SDS011;8539;53.188;8.696;2022-11-15T01:32:17;24.15;;;15.85;;
16845;SDS011;8539;53.188;8.696;2022-11-15T01:34:43;26.95;;;16.83;;
16845;SDS011;8539;53.188;8.696;2022-11-15T01:37:11;26.23;;;16.08;;
16845;SDS011;8539;53.188;8.696;2022-11-15T01:39:37;27.50;;;17.92;;
16845;SDS011;8539;53.188;8.696;2022-11-15T01:42:03;23.77;;;16.85;;
16845;SDS011;8539;53.188;8.696;2022-11-15T01:47:18;24.50;;;16.23;;
16845;SDS011;8539;53.188;8.696;2022-11-15T01:56:42;28.65;;;17.92;;
16845;SDS011;8539;53.188;8.696;2022-11-15T02:01:39;24.92;;;16.65;;
16845;SDS011;8539;53.188;8.696;2022-11-15T02:04:10;29.02;;;18.55;;
16845;SDS011;8539;53.188;8.696;2022-11-15T02:06:48;30.42;;;18.17;;
16845;SDS011;8539;53.188;8.696;2022-11-15T02:09:23;29.02;;;17.75;;
16845;SDS011;8539;53.188;8.696;2022-11-15T02:11:50;24.58;;;16.52;;
16845;SDS011;8539;53.188;8.696;2022-11-15T02:14:18;28.75;;;17.52;;
16845;SDS011;8539;53.188;8.696;2022-11-15T02:19:58;27.50;;;17.02;;
16845;SDS011;8539;53.188;8.696;2022-11-15T02:22:45;27.83;;;16.38;;
16845;SDS011;8539;53.188;8.696;2022-11-15T02:28:33;27.55;;;18.10;;
16845;SDS011;8539;53.188;8.696;2022-11-15T02:39:39;32.00;;;20.33;;
16845;SDS011;8539;53.188;8.696;2022-11-15T02:42:17;33.08;;;20.15;;
16845;SDS011;8539;53.188;8.696;2022-11-15T02:45:06;28.95;;;17.83;;
16845;SDS011;8539;53.188;8.696;2022-11-15T02:47:37;29.17;;;19.42;;
16845;SDS011;8539;53.188;8.696;2022-11-15T02:50:13;32.80;;;19.50;;
16845;SDS011;8539;53.188;8.696;2022-11-15T02:55:49;36.13;;;19.73;;
16845;SDS011;8539;53.188;8.696;2022-11-15T03:01:34;27.33;;;17.08;;
16845;SDS011;8539;53.188;8.696;2022-11-15T03:04:31;32.35;;;18.98;;
16845;SDS011;8539;53.188;8.696;2022-11-15T03:07:09;34.08;;;19.23;;
16845;SDS011;8539;53.188;8.696;2022-11-15T03:10:09;30.63;;;20.00;;
16845;SDS011;8539;53.188;8.696;2022-11-15T03:15:24;31.63;;;18.10;;
16845;SDS011;8539;53.188;8.696;2022-11-15T03:17:55;24.25;;;16.30;;
16845;SDS011;8539;53.188;8.696;2022-11-15T03:24:02;26.38;;;15.90;;
16845;SDS011;8539;53.188;8.696;2022-11-15T03:26:40;31.50;;;17.98;;
16845;SDS011;8539;53.188;8.696;2022-11-15T03:29:13;24.67;;;16.70;;
16845;SDS011;8539;53.188;8.696;2022-11-15T03:31:45;25.85;;;16.75;;
16845;SDS011;8539;53.188;8.696;2022-11-15T03:34:17;29.05;;;17.02;;
16845;SDS011;8539;53.188;8.696;2022-11-15T03:37:03;31.55;;;18.35;;
16845;SDS011;8539;53.188;8.696;2022-11-15T03:39:31;23.98;;;16.58;;
16845;SDS011;8539;53.188;8.696;2022-11-15T03:42:17;28.25;;;16.65;;
16845;SDS011;8539;53.188;8.696;2022-11-15T03:45:31;27.20;;;18.80;;
16845;SDS011;8539;53.188;8.696;2022-11-15T03:48:02;30.90;;;17.52;;
16845;SDS011;8539;53.188;8.696;2022-11-15T03:50:35;30.73;;;18.95;;
16845;SDS011;8539;53.188;8.696;2022-11-15T03:53:02;36.90;;;19.30;;
16845;SDS011;8539;53.188;8.696;2022-11-15T03:55:28;27.73;;;17.42;;
16845;SDS011;8539;53.188;8.696;2022-11-15T03:57:59;26.13;;;17.55;;
16845;SDS011;8539;53.188;8.696;2022-11-15T04:00:26;30.88;;;18.20;;
16845;SDS011;8539;53.188;8.696;2022-11-15T04:02:53;28.27;;;16.92;;
16845;SDS011;8539;53.188;8.696;2022-11-15T04:05:20;26.15;;;16.75;;
16845;SDS011;8539;53.188;8.696;2022-11-15T04:07:46;25.05;;;16.38;;
16845;SDS011;8539;53.188;8.696;2022-11-15T04:10:12;32.00;;;18.08;;
16845;SDS011;8539;53.188;8.696;2022-11-15T04:12:39;34.13;;;20.13;;
16845;SDS011;8539;53.188;8.696;2022-11-15T04:15:12;28.70;;;17.60;;
16845;SDS011;8539;53.188;8.696;2022-11-15T04:17:47;29.45;;;17.33;;
16845;SDS011;8539;53.188;8.696;2022-11-15T04:20:19;31.48;;;17.35;;
16845;SDS011;8539;53.188;8.696;2022-11-15T04:23:15;25.10;;;15.77;;
16845;SDS011;8539;53.188;8.696;2022-11-15T04:26:28;29.77;;;18.50;;
16845;SDS011;8539;53.188;8.696;2022-11-15T04:29:07;32.53;;;18.38;;
16845;SDS011;8539;53.188;8.696;2022-11-15T04:31:52;27.13;;;17.73;;
16845;SDS011;8539;53.188;8.696;2022-11-15T04:34:18;29.48;;;18.05;;
16845;SDS011;8539;53.188;8.696;2022-11-15T04:36:44;30.63;;;17.80;;
16845;SDS011;8539;53.188;8.696;2022-11-15T04:39:28;25.98;;;16.80;;
16845;SDS011;8539;53.188;8.696;2022-11-15T04:41:54;30.10;;;18.33;;
16845;SDS011;8539;53.188;8.696;2022-11-15T04:44:29;23.30;;;15.50;;
16845;SDS011;8539;53.188;8.696;2022-11-15T04:46:57;29.55;;;17.10;;
16845;SDS011;8539;53.188;8.696;2022-11-15T04:49:23;25.55;;;16.20;;
16845;SDS011;8539;53.188;8.696;2022-11-15T04:51:49;30.20;;;17.70;;
16845;SDS011;8539;53.188;8.696;2022-11-15T04:54:15;33.22;;;17.50;;
16845;SDS011;8539;53.188;8.696;2022-11-15T04:56:42;23.65;;;15.63;;
16845;SDS011;8539;53.188;8.696;2022-11-15T04:59:22;28.80;;;17.05;;
16845;SDS011;8539;53.188;8.696;2022-11-15T05:01:51;28.48;;;16.52;;
16845;SDS011;8539;53.188;8.696;2022-11-15T05:04:17;27.67;;;14.70;;
16845;SDS011;8539;53.188;8.696;2022-11-15T05:06:51;26.75;;;16.63;;
16845;SDS011;8539;53.188;8.696;2022-11-15T05:09:26;27.15;;;16.08;;
16845;SDS011;8539;53.188;8.696;2022-11-15T05:12:09;25.00;;;14.85;;
16845;SDS011;8539;53.188;8.696;2022-11-15T05:14:36;25.48;;;15.18;;
16845;SDS011;8539;53.188;8.696;2022-11-15T05:17:03;25.30;;;16.58;;
16845;SDS011;8539;53.188;8.696;2022-11-15T05:19:32;24.45;;;15.93;;
16845;SDS011;8539;53.188;8.696;2022-11-15T05:21:58;25.70;;;15.10;;
16845;SDS011;8539;53.188;8.696;2022-11-15T05:24:44;21.38;;;14.05;;
16845;SDS011;8539;53.188;8.696;2022-11-15T05:27:15;23.30;;;16.00;;
16845;SDS011;8539;53.188;8.696;2022-11-15T05:29:43;25.25;;;15.02;;
16845;SDS011;8539;53.188;8.696;2022-11-15T05:32:12;22.60;;;14.80;;
16845;SDS011;8539;53.188;8.696;2022-11-15T05:34:49;24.75;;;15.38;;
16845;SDS011;8539;53.188;8.696;2022-11-15T05:37:31;25.52;;;15.18;;
16845;SDS011;8539;53.188;8.696;2022-11-15T05:40:00;23.08;;;14.88;;
16845;SDS011;8539;53.188;8.696;2022-11-15T05:42:32;26.30;;;14.82;;
16845;SDS011;8539;53.188;8.696;2022-11-15T05:45:02;28.48;;;17.17;;
16845;SDS011;8539;53.188;8.696;2022-11-15T05:47:33;23.38;;;16.10;;
16845;SDS011;8539;53.188;8.696;2022-11-15T05:50:03;27.35;;;16.92;;
16845;SDS011;8539;53.188;8.696;2022-11-15T05:52:37;28.02;;;16.55;;
16845;SDS011;8539;53.188;8.696;2022-11-15T05:55:04;25.90;;;17.35;;
16845;SDS011;8539;53.188;8.696;2022-11-15T05:57:44;23.55;;;15.50;;
16845;SDS011;8539;53.188;8.696;2022-11-15T06:00:14;25.38;;;16.30;;
16845;SDS011;8539;53.188;8.696;2022-11-15T06:02:52;25.67;;;16.80;;
16845;SDS011;8539;53.188;8.696;2022-11-15T06:05:29;26.50;;;15.75;;
16845;SDS011;8539;53.188;8.696;2022-11-15T06:08:00;22.13;;;16.08;;
16845;SDS011;8539;53.188;8.696;2022-11-15T06:10:29;23.80;;;15.15;;
16845;SDS011;8539;53.188;8.696;2022-11-15T06:13:02;23.65;;;13.02;;
16845;SDS011;8539;53.188;8.696;2022-11-15T06:17:57;23.95;;;14.13;;
16845;SDS011;8539;53.188;8.696;2022-11-15T06:20:27;33.00;;;15.82;;
16845;SDS011;8539;53.188;8.696;2022-11-15T06:23:01;21.35;;;13.10;;
16845;SDS011;8539;53.188;8.696;2022-11-15T06:25:29;20.98;;;13.85;;
16845;SDS011;8539;53.188;8.696;2022-11-15T06:27:57;21.58;;;13.18;;
16845;SDS011;8539;53.188;8.696;2022-11-15T06:30:24;19.27;;;12.68;;
16845;SDS011;8539;53.188;8.696;2022-11-15T06:32:51;39.85;;;13.38;;
16845;SDS011;8539;53.188;8.696;2022-11-15T06:35:24;16.67;;;12.25;;
16845;SDS011;8539;53.188;8.696;2022-11-15T06:37:51;17.40;;;12.43;;
16845;SDS011;8539;53.188;8.696;2022-11-15T06:40:18;19.05;;;11.90;;
16845;SDS011;8539;53.188;8.696;2022-11-15T06:42:45;18.50;;;13.13;;
16845;SDS011;8539;53.188;8.696;2022-11-15T06:45:12;17.77;;;12.50;;
16845;SDS011;8539;53.188;8.696;2022-11-15T06:47:45;20.08;;;13.20;;
16845;SDS011;8539;53.188;8.696;2022-11-15T06:50:12;17.23;;;11.60;;
16845;SDS011;8539;53.188;8.696;2022-11-15T06:52:41;19.30;;;12.25;;
16845;SDS011;8539;53.188;8.696;2022-11-15T06:55:07;16.10;;;12.40;;
16845;SDS011;8539;53.188;8.696;2022-11-15T06:57:34;24.95;;;14.05;;
16845;SDS011;8539;53.188;8.696;2022-11-15T07:00:05;25.55;;;14.85;;
16845;SDS011;8539;53.188;8.696;2022-11-15T07:02:35;18.73;;;13.25;;
16845;SDS011;8539;53.188;8.696;2022-11-15T07:05:01;17.73;;;11.82;;
16845;SDS011;8539;53.188;8.696;2022-11-15T07:07:27;19.90;;;13.68;;
16845;SDS011;8539;53.188;8.696;2022-11-15T07:09:54;21.02;;;13.25;;
16845;SDS011;8539;53.188;8.696;2022-11-15T07:12:22;20.42;;;13.85;;
16845;SDS011;8539;53.188;8.696;2022-11-15T07:14:48;19.60;;;12.68;;
16845;SDS011;8539;53.188;8.696;2022-11-15T07:17:14;15.27;;;11.93;;
16845;SDS011;8539;53.188;8.696;2022-11-15T07:19:43;20.58;;;13.68;;
16845;SDS011;8539;53.188;8.696;2022-11-15T07:22:10;21.42;;;13.93;;
16845;SDS011;8539;53.188;8.696;2022-11-15T07:24:36;19.92;;;13.27;;
16845;SDS011;8539;53.188;8.696;2022-11-15T07:27:02;16.15;;;11.85;;
16845;SDS011;8539;53.188;8.696;2022-11-15T07:29:29;17.25;;;11.85;;
16845;SDS011;8539;53.188;8.696;2022-11-15T07:31:57;23.02;;;12.70;;
16845;SDS011;8539;53.188;8.696;2022-11-15T07:34:23;17.80;;;12.85;;
16845;SDS011;8539;53.188;8.696;2022-11-15T07:36:50;19.80;;;13.65;;
16845;SDS011;8539;53.188;8.696;2022-11-15T07:39:17;20.77;;;13.80;;
16845;SDS011;8539;53.188;8.696;2022-11-15T07:41:47;20.08;;;15.07;;
16845;SDS011;8539;53.188;8.696;2022-11-15T07:44:14;18.08;;;13.98;;
16845;SDS011;8539;53.188;8.696;2022-11-15T07:46:40;17.35;;;13.90;;
16845;SDS011;8539;53.188;8.696;2022-11-15T07:49:07;22.05;;;13.27;;
16845;SDS011;8539;53.188;8.696;2022-11-15T07:51:33;22.92;;;14.35;;
16845;SDS011;8539;53.188;8.696;2022-11-15T07:53:59;25.85;;;13.77;;
16845;SDS011;8539;53.188;8.696;2022-11-15T07:56:30;18.13;;;12.68;;
16845;SDS011;8539;53.188;8.696;2022-11-15T07:59:01;17.20;;;14.02;;
16845;SDS011;8539;53.188;8.696;2022-11-15T08:01:28;16.95;;;12.20;;
16845;SDS011;8539;53.188;8.696;2022-11-15T08:03:58;20.63;;;12.35;;
16845;SDS011;8539;53.188;8.696;2022-11-15T08:06:25;24.60;;;13.60;;
16845;SDS011;8539;53.188;8.696;2022-11-15T08:08:52;20.65;;;12.80;;
16845;SDS011;8539;53.188;8.696;2022-11-15T08:11:38;15.35;;;11.43;;
16845;SDS011;8539;53.188;8.696;2022-11-15T08:14:08;19.83;;;13.57;;
16845;SDS011;8539;53.188;8.696;2022-11-15T08:16:39;20.50;;;11.98;;
16845;SDS011;8539;53.188;8.696;2022-11-15T08:19:24;20.08;;;14.00;;
16845;SDS011;8539;53.188;8.696;2022-11-15T08:21:50;16.45;;;12.70;;
16845;SDS011;8539;53.188;8.696;2022-11-15T08:24:21;17.95;;;11.43;;
16845;SDS011;8539;53.188;8.696;2022-11-15T08:26:50;19.63;;;12.32;;
16845;SDS011;8539;53.188;8.696;2022-11-15T08:29:17;21.15;;;11.50;;
16845;SDS011;8539;53.188;8.696;2022-11-15T08:31:49;20.30;;;13.32;;
16845;SDS011;8539;53.188;8.696;2022-11-15T08:34:25;18.20;;;13.07;;
16845;SDS011;8539;53.188;8.696;2022-11-15T08:36:52;19.45;;;13.20;;
16845;SDS011;8539;53.188;8.696;2022-11-15T08:39:18;20.00;;;12.60;;
16845;SDS011;8539;53.188;8.696;2022-11-15T08:41:44;15.38;;;12.05;;
16845;SDS011;8539;53.188;8.696;2022-11-15T08:44:10;16.08;;;11.60;;
16845;SDS011;8539;53.188;8.696;2022-11-15T08:46:40;18.08;;;13.20;;
16845;SDS011;8539;53.188;8.696;2022-11-15T08:49:06;17.30;;;12.32;;
16845;SDS011;8539;53.188;8.696;2022-11-15T08:51:32;18.45;;;11.63;;
16845;SDS011;8539;53.188;8.696;2022-11-15T08:53:58;17.70;;;11.10;;
16845;SDS011;8539;53.188;8.696;2022-11-15T08:56:24;23.75;;;12.93;;
16845;SDS011;8539;53.188;8.696;2022-11-15T08:58:50;18.63;;;12.25;;
16845;SDS011;8539;53.188;8.696;2022-11-15T09:01:18;16.88;;;11.18;;
16845;SDS011;8539;53.188;8.696;2022-11-15T09:03:45;18.75;;;11.38;;
16845;SDS011;8539;53.188;8.696;2022-11-15T09:06:12;18.85;;;11.45;;
16845;SDS011;8539;53.188;8.696;2022-11-15T09:08:38;15.02;;;10.48;;
16845;SDS011;8539;53.188;8.696;2022-11-15T09:11:05;14.57;;;10.25;;
16845;SDS011;8539;53.188;8.696;2022-11-15T09:13:32;18.30;;;10.85;;
16845;SDS011;8539;53.188;8.696;2022-11-15T09:16:00;16.50;;;11.70;;
16845;SDS011;8539;53.188;8.696;2022-11-15T09:18:32;19.10;;;11.15;;
16845;SDS011;8539;53.188;8.696;2022-11-15T09:20:59;16.08;;;11.38;;
16845;SDS011;8539;53.188;8.696;2022-11-15T09:23:27;15.02;;;10.93;;
16845;SDS011;8539;53.188;8.696;2022-11-15T09:25:58;12.93;;;10.70;;
16845;SDS011;8539;53.188;8.696;2022-11-15T09:28:35;14.05;;;10.70;;
16845;SDS011;8539;53.188;8.696;2022-11-15T09:31:04;12.63;;;10.18;;
16845;SDS011;8539;53.188;8.696;2022-11-15T09:33:33;19.88;;;11.07;;
16845;SDS011;8539;53.188;8.696;2022-11-15T09:35:59;16.05;;;11.07;;
16845;SDS011;8539;53.188;8.696;2022-11-15T09:38:26;12.80;;;9.63;;
16845;SDS011;8539;53.188;8.696;2022-11-15T09:40:54;16.80;;;10.30;;
16845;SDS011;8539;53.188;8.696;2022-11-15T09:51:57;16.67;;;9.73;;
16845;SDS011;8539;53.188;8.696;2022-11-15T09:54:28;12.32;;;9.50;;
16845;SDS011;8539;53.188;8.696;2022-11-15T09:57:03;13.23;;;9.25;;
16845;SDS011;8539;53.188;8.696;2022-11-15T10:10:47;13.40;;;8.27;;
16845;SDS011;8539;53.188;8.696;2022-11-15T10:13:23;12.88;;;9.13;;
16845;SDS011;8539;53.188;8.696;2022-11-15T10:15:53;11.27;;;8.82;;
16845;SDS011;8539;53.188;8.696;2022-11-15T10:18:30;10.43;;;8.00;;
16845;SDS011;8539;53.188;8.696;2022-11-15T10:21:20;12.10;;;8.35;;
16845;SDS011;8539;53.188;8.696;2022-11-15T10:23:55;14.60;;;8.38;;
16845;SDS011;8539;53.188;8.696;2022-11-15T10:26:21;11.77;;;7.60;;
16845;SDS011;8539;53.188;8.696;2022-11-15T10:28:49;11.40;;;7.82;;
16845;SDS011;8539;53.188;8.696;2022-11-15T10:33:52;10.60;;;7.75;;
16845;SDS011;8539;53.188;8.696;2022-11-15T10:36:56;10.68;;;7.82;;
16845;SDS011;8539;53.188;8.696;2022-11-15T10:39:24;12.10;;;7.43;;
16845;SDS011;8539;53.188;8.696;2022-11-15T10:41:50;11.93;;;8.07;;
16845;SDS011;8539;53.188;8.696;2022-11-15T10:46:48;11.38;;;7.80;;
16845;SDS011;8539;53.188;8.696;2022-11-15T10:49:24;10.68;;;7.72;;
16845;SDS011;8539;53.188;8.696;2022-11-15T10:51:53;12.00;;;8.10;;
16845;SDS011;8539;53.188;8.696;2022-11-15T10:54:23;12.15;;;8.18;;
16845;SDS011;8539;53.188;8.696;2022-11-15T10:56:54;11.25;;;8.65;;
16845;SDS011;8539;53.188;8.696;2022-11-15T10:59:27;12.85;;;7.57;;
16845;SDS011;8539;53.188;8.696;2022-11-15T11:01:59;9.77;;;7.40;;
16845;SDS011;8539;53.188;8.696;2022-11-15T11:04:25;11.02;;;7.22;;
16845;SDS011;8539;53.188;8.696;2022-11-15T11:06:59;9.38;;;8.02;;
16845;SDS011;8539;53.188;8.696;2022-11-15T11:09:32;9.63;;;7.13;;
16845;SDS011;8539;53.188;8.696;2022-11-15T11:12:03;9.50;;;7.43;;
16845;SDS011;8539;53.188;8.696;2022-11-15T11:14:32;9.23;;;6.85;;
16845;SDS011;8539;53.188;8.696;2022-11-15T11:22:22;9.32;;;7.72;;
16845;SDS011;8539;53.188;8.696;2022-11-15T11:33:31;13.90;;;7.28;;
16845;SDS011;8539;53.188;8.696;2022-11-15T11:47:12;6.22;;;4.82;;
16845;SDS011;8539;53.188;8.696;2022-11-15T11:49:51;8.75;;;4.85;;
16845;SDS011;8539;53.188;8.696;2022-11-15T11:52:25;7.90;;;4.78;;
16845;SDS011;8539;53.188;8.696;2022-11-15T11:57:45;7.78;;;5.63;;
16845;SDS011;8539;53.188;8.696;2022-11-15T12:00:23;7.30;;;5.07;;
16845;SDS011;8539;53.188;8.696;2022-11-15T12:05:33;6.05;;;5.15;;
16845;SDS011;8539;53.188;8.696;2022-11-15T12:10:46;9.38;;;5.07;;
16845;SDS011;8539;53.188;8.696;2022-11-15T12:13:16;6.97;;;4.43;;
16845;SDS011;8539;53.188;8.696;2022-11-15T12:18:25;8.75;;;4.60;;
16845;SDS011;8539;53.188;8.696;2022-11-15T12:21:39;6.07;;;4.50;;
16845;SDS011;8539;53.188;8.696;2022-11-15T12:23:58;8.90;;;3.92;;
16845;SDS011;8539;53.188;8.696;2022-11-15T12:26:32;6.85;;;4.50;;
16845;SDS011;8539;53.188;8.696;2022-11-15T12:29:04;5.38;;;3.78;;
16845;SDS011;8539;53.188;8.696;2022-11-15T12:31:41;8.07;;;4.07;;
16845;SDS011;8539;53.188;8.696;2022-11-15T12:36:46;7.72;;;4.07;;
16845;SDS011;8539;53.188;8.696;2022-11-15T12:39:14;7.40;;;4.03;;
16845;SDS011;8539;53.188;8.696;2022-11-15T12:41:41;5.53;;;3.65;;
16845;SDS011;8539;53.188;8.696;2022-11-15T12:44:13;4.22;;;3.72;;
16845;SDS011;8539;53.188;8.696;2022-11-15T12:47:00;12.25;;;4.40;;
16845;SDS011;8539;53.188;8.696;2022-11-15T13:02:36;5.47;;;3.30;;
16845;SDS011;8539;53.188;8.696;2022-11-15T13:12:49;4.60;;;3.50;;
16845;SDS011;8539;53.188;8.696;2022-11-15T13:20:49;4.53;;;2.78;;
16845;SDS011;8539;53.188;8.696;2022-11-15T13:23:15;8.38;;;2.20;;
16845;SDS011;8539;53.188;8.696;2022-11-15T13:28:45;3.58;;;2.30;;
16845;SDS011;8539;53.188;8.696;2022-11-15T13:31:30;3.05;;;1.88;;
16845;SDS011;8539;53.188;8.696;2022-11-15T13:34:03;1.95;;;1.40;;
16845;SDS011;8539;53.188;8.696;2022-11-15T13:36:41;2.05;;;1.80;;
16845;SDS011;8539;53.188;8.696;2022-11-15T13:39:23;2.85;;;1.85;;
16845;SDS011;8539;53.188;8.696;2022-11-15T13:41:53;4.03;;;1.67;;
16845;SDS011;8539;53.188;8.696;2022-11-15T13:44:37;2.35;;;1.65;;
16845;SDS011;8539;53.188;8.696;2022-11-15T13:47:13;4.63;;;2.83;;
16845;SDS011;8539;53.188;8.696;2022-11-15T13:49:39;4.15;;;2.00;;
16845;SDS011;8539;53.188;8.696;2022-11-15T13:52:07;2.78;;;1.98;;
16845;SDS011;8539;53.188;8.696;2022-11-15T13:54:42;3.42;;;1.65;;
16845;SDS011;8539;53.188;8.696;2022-11-15T13:57:26;2.33;;;1.70;;
16845;SDS011;8539;53.188;8.696;2022-11-15T14:00:03;8.45;;;2.80;;
16845;SDS011;8539;53.188;8.696;2022-11-15T14:02:31;4.15;;;1.92;;
16845;SDS011;8539;53.188;8.696;2022-11-15T14:05:05;2.30;;;1.80;;
16845;SDS011;8539;53.188;8.696;2022-11-15T14:07:52;4.93;;;1.80;;
16845;SDS011;8539;53.188;8.696;2022-11-15T14:10:28;6.88;;;2.05;;
16845;SDS011;8539;53.188;8.696;2022-11-15T14:12:55;3.38;;;2.13;;
16845;SDS011;8539;53.188;8.696;2022-11-15T14:18:04;6.63;;;2.25;;
16845;SDS011;8539;53.188;8.696;2022-11-15T14:20:38;1.75;;;1.30;;
16845;SDS011;8539;53.188;8.696;2022-11-15T14:25:51;7.07;;;1.70;;
16845;SDS011;8539;53.188;8.696;2022-11-15T14:30:48;11.77;;;3.13;;
16845;SDS011;8539;53.188;8.696;2022-11-15T14:35:46;2.42;;;2.03;;
16845;SDS011;8539;53.188;8.696;2022-11-15T14:38:12;6.18;;;1.88;;
16845;SDS011;8539;53.188;8.696;2022-11-15T14:40:39;2.60;;;1.98;;
16845;SDS011;8539;53.188;8.696;2022-11-15T14:43:07;2.63;;;1.90;;
16845;SDS011;8539;53.188;8.696;2022-11-15T14:45:35;3.85;;;2.00;;
16845;SDS011;8539;53.188;8.696;2022-11-15T14:48:01;5.43;;;2.40;;
16845;SDS011;8539;53.188;8.696;2022-11-15T14:50:27;6.03;;;1.65;;
16845;SDS011;8539;53.188;8.696;2022-11-15T14:52:53;3.67;;;1.98;;
16845;SDS011;8539;53.188;8.696;2022-11-15T14:55:21;4.32;;;2.10;;
16845;SDS011;8539;53.188;8.696;2022-11-15T15:00:18;5.57;;;1.90;;
16845;SDS011;8539;53.188;8.696;2022-11-15T15:02:45;3.60;;;1.83;;
16845;SDS011;8539;53.188;8.696;2022-11-15T15:05:45;1.70;;;1.50;;
16845;SDS011;8539;53.188;8.696;2022-11-15T15:08:06;2.75;;;1.90;;
16845;SDS011;8539;53.188;8.696;2022-11-15T15:10:34;2.47;;;1.58;;
16845;SDS011;8539;53.188;8.696;2022-11-15T15:13:05;5.32;;;2.08;;
16845;SDS011;8539;53.188;8.696;2022-11-15T15:15:36;3.83;;;2.28;;
16845;SDS011;8539;53.188;8.696;2022-11-15T15:18:03;5.18;;;2.22;;
16845;SDS011;8539;53.188;8.696;2022-11-15T15:20:33;2.47;;;1.90;;
16845;SDS011;8539;53.188;8.696;2022-11-15T15:23:00;2.65;;;2.17;;
16845;SDS011;8539;53.188;8.696;2022-11-15T15:25:34;3.22;;;1.50;;
16845;SDS011;8539;53.188;8.696;2022-11-15T15:30:27;3.28;;;2.05;;
16845;SDS011;8539;53.188;8.696;2022-11-15T15:32:55;2.42;;;2.00;;
16845;SDS011;8539;53.188;8.696;2022-11-15T15:35:29;5.18;;;3.30;;
16845;SDS011;8539;53.188;8.696;2022-11-15T15:37:57;11.23;;;3.53;;
16845;SDS011;8539;53.188;8.696;2022-11-15T15:40:24;9.73;;;4.20;;
16845;SDS011;8539;53.188;8.696;2022-11-15T15:42:52;6.15;;;3.72;;
16845;SDS011;8539;53.188;8.696;2022-11-15T15:45:18;7.32;;;3.60;;
16845;SDS011;8539;53.188;8.696;2022-11-15T15:47:45;6.22;;;3.88;;
16845;SDS011;8539;53.188;8.696;2022-11-15T15:50:32;6.22;;;3.97;;
16845;SDS011;8539;53.188;8.696;2022-11-15T15:52:59;6.45;;;4.43;;
16845;SDS011;8539;53.188;8.696;2022-11-15T15:55:27;6.75;;;4.32;;
16845;SDS011;8539;53.188;8.696;2022-11-15T15:57:53;7.22;;;4.43;;
16845;SDS011;8539;53.188;8.696;2022-11-15T16:00:19;7.05;;;4.38;;
16845;SDS011;8539;53.188;8.696;2022-11-15T16:02:48;8.10;;;4.75;;
16845;SDS011;8539;53.188;8.696;2022-11-15T16:05:14;7.30;;;4.47;;
16845;SDS011;8539;53.188;8.696;2022-11-15T16:07:41;6.97;;;4.03;;
16845;SDS011;8539;53.188;8.696;2022-11-15T16:10:20;6.10;;;4.40;;
16845;SDS011;8539;53.188;8.696;2022-11-15T16:12:47;4.82;;;3.15;;
16845;SDS011;8539;53.188;8.696;2022-11-15T16:15:13;6.78;;;4.40;;
16845;SDS011;8539;53.188;8.696;2022-11-15T16:17:43;6.50;;;4.22;;
16845;SDS011;8539;53.188;8.696;2022-11-15T16:22:57;4.78;;;4.13;;
16845;SDS011;8539;53.188;8.696;2022-11-15T16:25:24;6.43;;;4.95;;
16845;SDS011;8539;53.188;8.696;2022-11-15T16:27:50;8.05;;;5.03;;
16845;SDS011;8539;53.188;8.696;2022-11-15T16:30:18;5.80;;;4.35;;
16845;SDS011;8539;53.188;8.696;2022-11-15T16:32:45;6.28;;;4.20;;
16845;SDS011;8539;53.188;8.696;2022-11-15T16:35:12;7.32;;;4.80;;
16845;SDS011;8539;53.188;8.696;2022-11-15T16:37:39;4.72;;;3.92;;
16845;SDS011;8539;53.188;8.696;2022-11-15T16:42:50;5.55;;;4.35;;
16845;SDS011;8539;53.188;8.696;2022-11-15T16:45:16;7.00;;;4.57;;
16845;SDS011;8539;53.188;8.696;2022-11-15T16:47:42;5.18;;;3.97;;
16845;SDS011;8539;53.188;8.696;2022-11-15T16:50:22;4.90;;;4.38;;
16845;SDS011;8539;53.188;8.696;2022-11-15T16:52:51;8.90;;;5.07;;
16845;SDS011;8539;53.188;8.696;2022-11-15T16:55:22;11.93;;;4.30;;
16845;SDS011;8539;53.188;8.696;2022-11-15T16:57:50;6.57;;;4.60;;
16845;SDS011;8539;53.188;8.696;2022-11-15T17:00:17;5.30;;;4.45;;
16845;SDS011;8539;53.188;8.696;2022-11-15T17:02:45;7.35;;;4.50;;
16845;SDS011;8539;53.188;8.696;2022-11-15T17:05:12;6.40;;;4.78;;
16845;SDS011;8539;53.188;8.696;2022-11-15T17:07:39;8.30;;;4.45;;
16845;SDS011;8539;53.188;8.696;2022-11-15T17:10:06;8.73;;;4.10;;
16845;SDS011;8539;53.188;8.696;2022-11-15T17:12:35;9.60;;;4.90;;
16845;SDS011;8539;53.188;8.696;2022-11-15T17:15:01;6.50;;;5.57;;
16845;SDS011;8539;53.188;8.696;2022-11-15T17:17:29;6.55;;;4.85;;
16845;SDS011;8539;53.188;8.696;2022-11-15T17:19:55;5.93;;;4.63;;
16845;SDS011;8539;53.188;8.696;2022-11-15T17:22:22;8.40;;;5.10;;
16845;SDS011;8539;53.188;8.696;2022-11-15T17:24:48;5.90;;;4.47;;
16845;SDS011;8539;53.188;8.696;2022-11-15T17:27:14;8.63;;;5.43;;
16845;SDS011;8539;53.188;8.696;2022-11-15T17:29:41;5.75;;;4.80;;
16845;SDS011;8539;53.188;8.696;2022-11-15T17:32:07;7.82;;;5.20;;
16845;SDS011;8539;53.188;8.696;2022-11-15T17:34:33;7.68;;;5.93;;
16845;SDS011;8539;53.188;8.696;2022-11-15T17:36:59;7.57;;;5.30;;
16845;SDS011;8539;53.188;8.696;2022-11-15T17:39:25;8.30;;;4.90;;
16845;SDS011;8539;53.188;8.696;2022-11-15T17:41:52;6.28;;;5.35;;
16845;SDS011;8539;53.188;8.696;2022-11-15T17:44:18;7.15;;;4.72;;
16845;SDS011;8539;53.188;8.696;2022-11-15T17:46:44;6.70;;;5.10;;
16845;SDS011;8539;53.188;8.696;2022-11-15T17:49:10;6.05;;;4.53;;
16845;SDS011;8539;53.188;8.696;2022-11-15T17:51:36;6.47;;;4.47;;
16845;SDS011;8539;53.188;8.696;2022-11-15T17:54:02;8.98;;;5.15;;
16845;SDS011;8539;53.188;8.696;2022-11-15T17:56:28;5.28;;;4.30;;
16845;SDS011;8539;53.188;8.696;2022-11-15T17:58:58;5.80;;;4.80;;
16845;SDS011;8539;53.188;8.696;2022-11-15T18:01:31;10.88;;;4.68;;
16845;SDS011;8539;53.188;8.696;2022-11-15T18:04:00;5.57;;;4.43;;
16845;SDS011;8539;53.188;8.696;2022-11-15T18:06:29;14.23;;;5.95;;